createdAt,value
2023-01-08T00:02:19.291Z,36.77
2023-01-08T00:04:46.124Z,36.81
2023-01-08T00:07:12.933Z,36.87
2023-01-08T00:09:40.577Z,36.80
2023-01-08T00:12:07.565Z,37.03
2023-01-08T00:14:34.468Z,36.92
2023-01-08T00:17:02.979Z,36.91
2023-01-08T00:19:31.432Z,36.86
2023-01-08T00:21:58.325Z,36.84
2023-01-08T00:24:25.441Z,36.83
2023-01-08T00:26:52.447Z,36.93
2023-01-08T00:29:19.431Z,36.80
2023-01-08T00:31:46.376Z,36.87
2023-01-08T00:34:13.322Z,36.98
2023-01-08T00:36:40.277Z,36.65
2023-01-08T00:39:07.312Z,36.83
2023-01-08T00:41:34.266Z,36.71
2023-01-08T00:44:01.176Z,36.83
2023-01-08T00:46:28.368Z,36.80
2023-01-08T00:48:55.309Z,37.17
2023-01-08T00:51:22.472Z,37.07
2023-01-08T00:53:49.551Z,37.06
2023-01-08T00:56:16.455Z,37.17
2023-01-08T00:58:43.432Z,37.16
2023-01-08T01:01:12.127Z,37.37
2023-01-08T01:03:39.333Z,37.44
2023-01-08T01:06:06.806Z,37.66
2023-01-08T01:08:34.682Z,37.94
2023-01-08T01:11:01.592Z,37.83
2023-01-08T01:13:28.767Z,37.82
2023-01-08T01:15:59.622Z,37.66
2023-01-08T01:18:26.578Z,37.52
2023-01-08T01:20:53.521Z,37.67
2023-01-08T01:23:20.428Z,37.59
2023-01-08T01:25:47.446Z,37.85
2023-01-08T01:28:14.350Z,37.80
2023-01-08T01:30:41.333Z,37.68
2023-01-08T01:33:08.197Z,37.63
2023-01-08T01:35:35.138Z,37.60
2023-01-08T01:38:01.969Z,37.67
2023-01-08T01:40:28.815Z,37.48
2023-01-08T01:42:55.769Z,37.46
2023-01-08T01:45:24.303Z,37.30
2023-01-08T01:48:16.345Z,36.89
2023-01-08T01:50:46.195Z,37.14
2023-01-08T01:53:17.475Z,37.21
2023-01-08T01:55:44.446Z,37.20
2023-01-08T01:58:15.435Z,37.41
2023-01-08T02:00:42.832Z,37.45
2023-01-08T02:03:13.566Z,37.28
2023-01-08T02:06:01.016Z,37.27
2023-01-08T02:08:31.125Z,37.40
2023-01-08T02:11:02.841Z,37.03
2023-01-08T02:13:31.520Z,37.38
2023-01-08T02:16:01.243Z,37.30
2023-01-08T02:18:32.907Z,37.43
2023-01-08T02:21:24.242Z,37.11
2023-01-08T02:24:01.951Z,37.32
2023-01-08T02:26:30.655Z,37.29
2023-01-08T02:29:10.760Z,37.56
2023-01-08T02:31:39.148Z,37.30
2023-01-08T02:34:06.029Z,37.39
2023-01-08T02:36:35.170Z,37.28
2023-01-08T02:39:04.894Z,37.54
2023-01-08T02:41:54.850Z,37.63
2023-01-08T02:44:33.737Z,37.92
2023-01-08T02:47:00.789Z,37.98
2023-01-08T02:49:30.484Z,37.91
2023-01-08T02:51:57.397Z,37.71
2023-01-08T02:54:27.142Z,37.51
2023-01-08T02:56:58.364Z,37.31
2023-01-08T02:59:25.179Z,37.41
2023-01-08T03:01:52.500Z,37.47
2023-01-08T03:04:20.473Z,37.62
2023-01-08T03:06:47.436Z,37.83
2023-01-08T03:09:14.657Z,38.18
2023-01-08T03:11:46.592Z,37.99
2023-01-08T03:14:19.132Z,38.10
2023-01-08T03:16:48.382Z,38.15
2023-01-08T03:19:19.688Z,38.07
2023-01-08T03:21:46.503Z,38.13
2023-01-08T03:24:15.349Z,37.85
2023-01-08T03:26:42.357Z,38.04
2023-01-08T03:29:11.034Z,38.15
2023-01-08T03:31:37.999Z,37.96
2023-01-08T03:34:04.840Z,38.03
2023-01-08T03:36:31.661Z,38.06
2023-01-08T03:39:05.566Z,38.34
2023-01-08T03:41:32.519Z,38.39
2023-01-08T03:43:59.382Z,38.21
2023-01-08T03:46:33.060Z,38.01
2023-01-08T03:49:00.023Z,38.12
2023-01-08T03:51:26.942Z,37.84
2023-01-08T03:53:56.710Z,37.84
2023-01-08T03:56:23.530Z,37.59
2023-01-08T03:58:50.395Z,37.91
2023-01-08T04:01:17.326Z,37.74
2023-01-08T04:03:44.295Z,37.66
2023-01-08T04:06:11.098Z,38.06
2023-01-08T04:08:37.925Z,38.17
2023-01-08T04:11:04.855Z,38.35
2023-01-08T04:13:31.746Z,38.16
2023-01-08T04:15:58.858Z,37.77
2023-01-08T04:18:25.759Z,37.73
2023-01-08T04:20:52.690Z,37.85
2023-01-08T04:23:19.635Z,38.06
2023-01-08T04:25:46.447Z,37.96
2023-01-08T04:28:13.275Z,38.41
2023-01-08T04:30:40.142Z,38.52
2023-01-08T04:33:07.056Z,38.64
2023-01-08T04:35:34.012Z,38.69
2023-01-08T04:38:00.948Z,38.87
2023-01-08T04:40:27.888Z,39.08
2023-01-08T04:42:54.666Z,39.07
2023-01-08T04:45:21.721Z,38.76
2023-01-08T04:47:48.777Z,38.54
2023-01-08T04:50:15.824Z,38.51
2023-01-08T04:52:42.664Z,38.51
2023-01-08T04:55:09.638Z,38.40
2023-01-08T04:57:36.399Z,38.26
2023-01-08T05:00:03.627Z,38.36
2023-01-08T05:02:30.574Z,38.22
2023-01-08T05:04:57.523Z,38.10
2023-01-08T05:07:24.407Z,38.26
2023-01-08T05:09:51.329Z,38.34
2023-01-08T05:12:18.375Z,38.76
2023-01-08T05:14:45.197Z,38.48
2023-01-08T05:17:12.117Z,38.54
2023-01-08T05:19:38.984Z,38.38
2023-01-08T05:22:05.935Z,38.21
2023-01-08T05:24:33.531Z,38.45
2023-01-08T05:27:00.540Z,38.07
2023-01-08T05:29:27.490Z,37.97
2023-01-08T05:31:54.453Z,37.50
2023-01-08T05:34:21.414Z,37.87
2023-01-08T05:36:48.685Z,37.40
2023-01-08T05:39:15.708Z,37.33
2023-01-08T05:41:42.576Z,37.28
2023-01-08T05:44:10.328Z,37.30
2023-01-08T05:46:37.267Z,37.43
2023-01-08T05:49:04.325Z,37.83
2023-01-08T05:51:31.228Z,37.48
2023-01-08T05:53:58.214Z,37.88
2023-01-08T05:56:25.131Z,37.84
2023-01-08T05:58:54.714Z,38.05
2023-01-08T06:01:21.834Z,37.59
2023-01-08T06:03:48.820Z,37.75
2023-01-08T06:06:16.882Z,37.80
2023-01-08T06:08:43.918Z,37.89
2023-01-08T06:11:11.558Z,38.04
2023-01-08T06:13:41.685Z,37.61
2023-01-08T06:16:08.735Z,37.68
2023-01-08T06:18:35.870Z,37.43
2023-01-08T06:21:02.938Z,37.43
2023-01-08T06:23:30.040Z,37.39
2023-01-08T06:25:57.959Z,37.13
2023-01-08T06:28:25.477Z,37.13
2023-01-08T06:30:52.696Z,37.17
2023-01-08T06:33:21.582Z,37.34
2023-01-08T06:35:49.494Z,37.18
2023-01-08T06:38:19.217Z,36.91
2023-01-08T06:40:47.200Z,37.08
2023-01-08T06:43:14.275Z,36.94
2023-01-08T06:45:41.316Z,36.85
2023-01-08T06:48:08.765Z,36.69
2023-01-08T06:50:36.185Z,36.35
2023-01-08T06:53:03.239Z,36.04
2023-01-08T06:55:30.740Z,36.24
2023-01-08T06:57:58.352Z,36.80
2023-01-08T07:00:26.328Z,36.93
2023-01-08T07:02:53.477Z,36.67
2023-01-08T07:05:20.614Z,36.40
2023-01-08T07:07:47.683Z,36.59
2023-01-08T07:10:15.240Z,36.50
2023-01-08T07:12:42.759Z,36.76
2023-01-08T07:15:10.422Z,36.89
2023-01-08T07:17:37.498Z,37.12
2023-01-08T07:20:05.633Z,37.03
2023-01-08T07:22:32.679Z,37.11
2023-01-08T07:25:00.922Z,36.87
2023-01-08T07:27:30.519Z,36.80
2023-01-08T07:30:00.947Z,36.59
2023-01-08T07:32:31.630Z,36.77
2023-01-08T07:35:01.677Z,36.58
2023-01-08T07:37:30.921Z,36.41
2023-01-08T07:40:00.470Z,36.33
2023-01-08T07:42:30.945Z,36.32
2023-01-08T07:45:01.616Z,36.16
2023-01-08T07:47:31.791Z,36.24
2023-01-08T07:50:01.683Z,36.12
2023-01-08T12:23:15.626Z,51.35
2023-01-08T12:26:06.331Z,43.06
2023-01-08T12:28:59.486Z,40.86
2023-01-08T12:32:01.887Z,40.14
2023-01-08T12:34:41.717Z,39.35
2023-01-08T12:37:19.353Z,38.81
2023-01-08T12:40:06.746Z,38.34
2023-01-08T12:42:38.455Z,38.31
2023-01-08T12:45:06.874Z,38.20
2023-01-08T12:47:35.173Z,37.47
2023-01-08T12:50:16.239Z,37.48
2023-01-08T12:52:48.502Z,37.33
2023-01-08T12:55:30.192Z,37.48
2023-01-08T12:58:18.133Z,37.42
2023-01-08T13:01:26.906Z,37.70
2023-01-08T13:03:53.815Z,37.56
2023-01-08T13:06:20.828Z,37.31
2023-01-08T13:08:54.683Z,36.92
2023-01-08T13:11:29.603Z,36.51
2023-01-08T13:14:07.938Z,36.69
2023-01-08T13:16:39.763Z,36.41
2023-01-08T13:19:07.848Z,35.79
2023-01-08T13:21:50.047Z,35.56
2023-01-08T13:24:34.926Z,35.36
2023-01-08T13:27:14.182Z,34.83
2023-01-08T13:29:42.467Z,35.14
2023-01-08T13:32:37.534Z,34.89
2023-01-08T13:35:13.930Z,34.99
2023-01-08T13:37:49.316Z,35.46
2023-01-08T13:40:39.082Z,35.01
2023-01-08T13:43:30.243Z,35.20
2023-01-08T13:45:59.781Z,34.78
2023-01-08T13:48:28.539Z,35.00
2023-01-08T13:50:55.997Z,35.16
2023-01-08T13:53:23.969Z,35.36
2023-01-08T13:56:05.283Z,35.49
2023-01-08T13:58:44.845Z,35.94
2023-01-08T14:01:13.001Z,35.83
2023-01-08T14:03:45.156Z,35.93
2023-01-08T14:06:19.560Z,36.23
2023-01-08T14:08:57.974Z,36.20
2023-01-08T14:11:29.670Z,35.99
2023-01-08T14:13:56.786Z,35.75
2023-01-08T14:16:23.636Z,35.65
2023-01-08T14:18:50.467Z,35.74
2023-01-08T14:21:21.714Z,35.68
2023-01-08T14:23:49.294Z,35.33
2023-01-08T14:26:28.997Z,35.17
2023-01-08T14:28:56.072Z,35.10
2023-01-08T14:31:26.788Z,35.00
2023-01-08T14:33:54.983Z,34.72
2023-01-08T14:36:21.954Z,34.60
2023-01-08T14:38:51.949Z,34.42
2023-01-08T14:41:52.513Z,33.86
2023-01-08T14:44:29.231Z,33.90
2023-01-08T14:47:03.525Z,33.69
2023-01-08T14:49:32.275Z,33.91
2023-01-08T14:52:00.042Z,34.11
2023-01-08T14:54:30.287Z,33.99
2023-01-08T14:57:00.483Z,34.14
2023-01-08T14:59:30.498Z,34.12
2023-01-08T15:01:59.555Z,33.66
2023-01-08T15:04:27.295Z,33.72
2023-01-08T15:07:05.475Z,33.66
2023-01-08T15:09:33.148Z,33.64
2023-01-08T15:12:01.625Z,33.70
2023-01-08T15:14:30.398Z,33.57
2023-01-08T15:16:59.150Z,33.80
2023-01-08T15:19:28.314Z,33.85
2023-01-08T15:21:59.366Z,33.61
2023-01-08T15:24:34.060Z,33.69
2023-01-08T15:27:09.323Z,33.71
2023-01-08T15:29:39.547Z,33.70
2023-01-08T15:32:11.835Z,33.50
2023-01-08T15:34:39.975Z,33.70
2023-01-08T15:37:06.932Z,33.75
2023-01-08T15:39:33.765Z,33.66
2023-01-08T15:42:21.392Z,33.74
2023-01-08T15:44:48.439Z,33.64
2023-01-08T15:47:15.298Z,33.73
2023-01-08T15:49:42.953Z,33.56
2023-01-08T15:52:09.693Z,33.55
2023-01-08T15:54:36.845Z,33.59
2023-01-08T19:52:53.027Z,49.08
2023-01-08T19:55:21.719Z,41.08
2023-01-08T19:57:49.904Z,39.34
2023-01-08T20:00:17.684Z,38.49
2023-01-08T20:02:44.856Z,37.55
2023-01-08T20:05:12.394Z,37.05
2023-01-08T20:07:40.171Z,36.67
2023-01-08T20:10:10.524Z,36.65
2023-01-08T20:12:39.676Z,36.39
2023-01-08T20:15:08.752Z,36.17
2023-01-08T20:17:37.654Z,35.90
2023-01-08T20:20:06.125Z,35.87
2023-01-08T20:22:33.280Z,35.52
2023-01-08T20:25:04.116Z,35.49
2023-01-08T20:27:31.786Z,35.03
2023-01-08T20:29:58.847Z,34.78
2023-01-08T20:32:25.877Z,34.53
2023-01-08T20:35:29.235Z,34.20
2023-01-08T20:37:56.151Z,33.80
2023-01-08T20:40:24.406Z,33.59
2023-01-08T20:42:51.462Z,33.50
2023-01-08T20:45:18.496Z,33.26
2023-01-08T20:47:45.451Z,33.04
2023-01-08T20:50:19.733Z,32.85
2023-01-08T20:52:47.634Z,32.73
2023-01-08T20:55:16.435Z,32.68
2023-01-08T20:57:43.988Z,32.68
2023-01-08T21:00:12.157Z,32.64
2023-01-08T21:02:39.344Z,32.60
2023-01-08T21:05:07.903Z,32.60
2023-01-08T21:07:35.094Z,32.50
2023-01-08T21:10:02.127Z,32.47
2023-01-08T21:12:30.987Z,32.50
2023-01-08T21:14:58.039Z,32.51
2023-01-08T21:17:25.034Z,32.59
2023-01-08T21:19:51.956Z,32.51
2023-01-08T21:22:19.080Z,32.34
2023-01-08T21:24:47.255Z,32.32
2023-01-08T21:27:14.053Z,32.25
2023-01-08T21:29:41.164Z,32.40
2023-01-08T21:32:11.169Z,32.48
2023-01-08T21:34:38.332Z,32.55
2023-01-08T21:37:08.151Z,32.80
2023-01-08T21:39:35.184Z,32.58
2023-01-08T21:42:20.660Z,32.48
2023-01-08T21:45:06.470Z,32.47
2023-01-08T21:47:33.977Z,32.27
2023-01-08T21:50:00.713Z,32.44
2023-01-08T21:52:46.111Z,32.47
2023-01-08T21:55:16.455Z,32.54
2023-01-08T21:57:43.815Z,32.45
2023-01-08T22:00:11.782Z,32.32
2023-01-08T22:02:38.589Z,32.33
2023-01-08T22:05:05.798Z,32.74
2023-01-08T22:07:32.759Z,32.81
2023-01-08T22:10:00.217Z,32.46
2023-01-08T22:12:27.247Z,32.57
2023-01-08T22:14:54.907Z,32.55
2023-01-08T22:17:22.876Z,32.90
2023-01-08T22:19:50.939Z,32.72
2023-01-08T22:22:17.860Z,32.96
2023-01-08T22:24:45.768Z,32.72
2023-01-08T22:27:12.613Z,32.52
2023-01-08T22:29:39.443Z,32.66
2023-01-08T22:32:06.404Z,32.57
2023-01-08T22:34:33.953Z,32.54
2023-01-08T22:37:00.997Z,32.67
2023-01-08T22:39:28.255Z,32.73
2023-01-08T22:41:54.885Z,32.55
2023-01-08T22:44:21.652Z,32.62
2023-01-08T22:46:48.392Z,32.44
2023-01-08T22:49:15.330Z,32.43
2023-01-08T22:51:45.240Z,32.31
2023-01-08T22:54:12.595Z,32.47
2023-01-08T22:56:39.857Z,32.44
2023-01-08T22:59:06.797Z,32.56
2023-01-08T23:01:33.558Z,32.94
2023-01-08T23:04:00.655Z,33.22
2023-01-08T23:06:29.064Z,33.09
2023-01-08T23:08:56.138Z,33.09
2023-01-08T23:11:23.686Z,33.00
2023-01-08T23:13:53.456Z,33.06
2023-01-08T23:16:22.986Z,33.17
2023-01-08T23:18:54.440Z,33.22
2023-01-08T23:21:23.036Z,33.02
2023-01-08T23:23:50.091Z,33.16
2023-01-08T23:26:19.406Z,33.01
2023-01-08T23:28:46.945Z,33.02
2023-01-08T23:31:15.599Z,32.73
2023-01-08T23:33:42.380Z,32.80
2023-01-08T23:36:09.543Z,32.88
2023-01-08T23:38:36.793Z,32.75
2023-01-08T23:41:05.627Z,32.52
2023-01-08T23:43:34.985Z,32.47
2023-01-08T23:46:05.743Z,32.83
2023-01-08T23:48:33.478Z,32.79
2023-01-08T23:51:00.355Z,32.69
2023-01-08T23:53:27.381Z,32.71
2023-01-08T23:55:54.324Z,32.75
2023-01-08T23:58:21.165Z,32.69
